Terminal Aerodrome Forecast
Issued by NWS

Home | Current Version | Previous Version | Text Only | Print | Product List | Glossary On
Versions: 1 2 3 4 5 6 7 8 9 10 11 12 13 14 15 16 17 18 19 20 21 22 23 24 25 26 27 28 29 30 31
666
FTUS45 KGJT 281723
TAFASE
TAF
KASE 281723Z 2818/2918 33009G15KT P6SM VCTS SCT070CB SCT200
     FM290200 20007KT P6SM SCT070 BKN110
     FM290500 21005KT P6SM SCT250=

USA.gov is the U.S. government's official web portal to all federal, state and local government web resources and services.